createdAt,value
2019-01-11T00:01:41.360Z,26.60
2019-01-11T00:04:10.232Z,26.97
2019-01-11T00:06:39.087Z,27.70
2019-01-11T00:09:09.078Z,25.87
2019-01-11T00:11:38.143Z,26.27
2019-01-11T00:14:07.120Z,24.77
2019-01-11T00:16:36.076Z,25.83
2019-01-11T00:19:07.257Z,25.47
2019-01-11T00:21:36.244Z,24.87
2019-01-11T00:24:06.230Z,25.07
2019-01-11T00:26:35.094Z,25.00
2019-01-11T00:29:04.580Z,24.43
2019-01-11T00:31:33.545Z,22.63
2019-01-11T00:34:02.431Z,22.03
2019-01-11T00:36:31.278Z,22.53
2019-01-11T00:39:00.115Z,22.27
2019-01-11T00:41:28.982Z,21.73
2019-01-11T00:43:57.865Z,22.23
2019-01-11T00:46:26.687Z,21.27
2019-01-11T00:48:55.516Z,21.57
2019-01-11T00:51:24.522Z,20.37
2019-01-11T00:53:53.418Z,19.97
2019-01-11T00:56:22.202Z,20.37
2019-01-11T00:58:51.028Z,20.33
2019-01-11T01:01:19.911Z,19.50
2019-01-11T01:03:48.791Z,20.63
2019-01-11T01:06:17.612Z,21.20
2019-01-11T01:08:46.554Z,20.33
2019-01-11T01:11:15.453Z,20.20
2019-01-11T01:13:44.315Z,20.07
2019-01-11T01:16:13.200Z,20.50
2019-01-11T01:18:42.142Z,20.43
2019-01-11T01:21:11.119Z,19.63
2019-01-11T01:23:39.997Z,19.90
2019-01-11T01:26:09.058Z,20.17
2019-01-11T01:28:37.929Z,20.03
2019-01-11T01:31:06.912Z,20.33
2019-01-11T01:33:35.787Z,20.40
2019-01-11T01:36:04.855Z,20.47
2019-01-11T01:38:33.754Z,21.00
2019-01-11T01:41:02.638Z,20.60
2019-01-11T01:43:31.620Z,20.70
2019-01-11T01:46:00.509Z,20.63
2019-01-11T01:48:30.623Z,19.37
2019-01-11T01:51:01.068Z,19.37
2019-01-11T01:53:29.959Z,19.73
2019-01-11T01:55:58.774Z,20.77
2019-01-11T01:58:27.728Z,19.80
2019-01-11T02:00:56.616Z,20.20
2019-01-11T02:03:25.505Z,20.57
2019-01-11T02:05:54.661Z,20.23
2019-01-11T02:08:23.587Z,21.47
2019-01-11T02:10:52.628Z,21.03
2019-01-11T02:13:21.406Z,21.20
2019-01-11T02:15:50.287Z,21.67
2019-01-11T02:18:19.083Z,22.33
2019-01-11T02:20:47.951Z,22.10
2019-01-11T02:23:16.839Z,23.47
2019-01-11T02:25:46.287Z,23.47
2019-01-11T02:28:15.364Z,23.47
2019-01-11T02:30:44.247Z,23.73
2019-01-11T02:33:13.066Z,23.30
2019-01-11T02:35:41.958Z,24.00
2019-01-11T02:38:10.840Z,23.80
2019-01-11T02:40:39.795Z,23.70
2019-01-11T02:43:08.681Z,23.70
2019-01-11T02:45:37.624Z,23.07
2019-01-11T02:48:06.516Z,24.20
2019-01-11T02:50:35.386Z,23.90
2019-01-11T02:53:04.311Z,24.90
2019-01-11T02:55:33.108Z,24.73
2019-01-11T02:58:01.920Z,23.13
2019-01-11T03:00:30.774Z,23.77
2019-01-11T03:02:59.663Z,23.50
2019-01-11T03:05:28.602Z,23.90
2019-01-11T03:07:57.579Z,24.17
2019-01-11T03:10:26.521Z,23.73
2019-01-11T03:12:55.503Z,23.57
2019-01-11T03:15:24.372Z,23.50
2019-01-11T03:17:53.337Z,22.87
2019-01-11T03:20:22.283Z,22.97
2019-01-11T03:22:51.250Z,21.93
2019-01-11T03:25:20.112Z,21.70
2019-01-11T03:27:49.003Z,21.37
2019-01-11T03:30:19.852Z,21.97
2019-01-11T03:32:48.831Z,20.93
2019-01-11T03:35:22.285Z,20.53
2019-01-11T03:37:51.815Z,19.97
2019-01-11T03:40:24.798Z,20.20
2019-01-11T03:42:53.703Z,19.03
2019-01-11T03:45:26.369Z,19.30
2019-01-11T03:47:55.266Z,19.80
2019-01-11T03:50:25.416Z,19.10
2019-01-11T03:52:54.287Z,19.20
2019-01-11T03:55:23.234Z,18.53
2019-01-11T03:57:52.118Z,18.67
2019-01-11T04:00:24.612Z,18.47
2019-01-11T04:02:53.586Z,18.70
2019-01-11T04:05:22.524Z,18.97
2019-01-11T04:07:51.635Z,19.27
2019-01-11T04:10:24.519Z,18.17
2019-01-11T04:12:53.498Z,18.53
2019-01-11T04:15:23.487Z,17.33
2019-01-11T04:18:10.420Z,18.27
2019-01-11T04:20:39.212Z,16.93
2019-01-11T04:23:08.086Z,17.27
2019-01-11T04:25:47.490Z,17.03
2019-01-11T04:28:16.370Z,15.77
2019-01-11T04:30:45.159Z,16.67
2019-01-11T04:33:13.979Z,15.43
2019-01-11T04:35:42.840Z,15.37
2019-01-11T04:38:11.722Z,14.60
2019-01-11T04:40:40.597Z,14.27
2019-01-11T04:43:09.444Z,14.90
2019-01-11T04:45:38.403Z,14.07
2019-01-11T04:48:07.330Z,13.70
2019-01-11T04:50:36.146Z,14.23
2019-01-11T04:53:05.353Z,14.00
2019-01-11T04:55:34.165Z,14.10
2019-01-11T04:58:03.030Z,13.33
2019-01-11T05:00:31.909Z,12.57
2019-01-11T05:03:00.678Z,13.60
2019-01-11T05:05:29.563Z,13.53
2019-01-11T05:07:58.429Z,13.63
2019-01-11T05:10:27.305Z,13.33
2019-01-11T05:12:57.969Z,13.20
2019-01-11T05:15:26.858Z,13.00
2019-01-11T05:17:55.639Z,13.30
2019-01-11T05:20:24.445Z,12.97
2019-01-11T05:22:53.307Z,13.87
2019-01-11T05:25:22.188Z,13.40
2019-01-11T05:27:50.974Z,14.63
2019-01-11T05:30:20.322Z,14.27
2019-01-11T05:32:49.171Z,15.07
2019-01-11T05:35:18.059Z,15.00
2019-01-11T05:37:46.918Z,15.53
2019-01-11T05:40:18.191Z,16.30
2019-01-11T05:42:47.056Z,15.83
2019-01-11T05:45:16.010Z,16.27
2019-01-11T05:47:44.854Z,16.57
2019-01-11T05:50:16.108Z,16.93
2019-01-11T05:52:44.883Z,17.83
2019-01-11T05:55:21.003Z,17.33
2019-01-11T05:58:17.935Z,18.23
2019-01-11T06:00:46.747Z,18.80
2019-01-11T06:03:15.538Z,18.30
2019-01-11T06:05:44.334Z,19.53
2019-01-11T06:08:15.351Z,18.27
2019-01-11T06:10:44.161Z,19.47
2019-01-11T06:13:13.030Z,18.33
2019-01-11T06:15:41.847Z,18.67
2019-01-11T06:18:10.718Z,19.47
2019-01-11T06:20:39.630Z,18.77
2019-01-11T06:23:08.492Z,19.10
2019-01-11T06:25:37.368Z,20.30
2019-01-11T06:28:06.244Z,20.03
2019-01-11T06:30:35.049Z,20.03
2019-01-11T06:33:03.936Z,21.40
2019-01-11T06:35:32.820Z,19.37
2019-01-11T06:38:01.611Z,20.10
2019-01-11T06:40:30.511Z,21.00
2019-01-11T06:43:03.504Z,21.10
2019-01-11T06:45:29.903Z,20.83
2019-01-11T06:47:58.686Z,21.13
2019-01-11T06:50:27.472Z,20.83
2019-01-11T06:52:56.285Z,21.07
2019-01-11T06:55:25.160Z,20.93
2019-01-11T06:57:53.979Z,22.87
2019-01-11T07:00:22.937Z,23.13
2019-01-11T07:02:51.815Z,22.37
2019-01-11T07:05:20.603Z,22.67
2019-01-11T07:07:49.406Z,22.57
2019-01-11T07:10:19.562Z,23.03
2019-01-11T07:12:48.527Z,23.17
2019-01-11T07:15:17.798Z,23.67
2019-01-11T07:17:46.709Z,23.53
2019-01-11T07:20:15.659Z,24.27
2019-01-11T07:22:44.545Z,22.90
2019-01-11T07:25:13.806Z,25.27
2019-01-11T07:27:46.668Z,23.67
2019-01-11T07:30:15.829Z,23.90
2019-01-11T07:32:44.727Z,24.87
2019-01-11T07:35:13.659Z,25.10
2019-01-11T07:37:42.462Z,24.50
2019-01-11T07:40:11.580Z,24.10
2019-01-11T07:42:40.471Z,24.80
2019-01-11T07:45:12.638Z,24.03
2019-01-11T07:47:41.586Z,23.53
2019-01-11T07:50:10.648Z,24.30
2019-01-11T07:52:40.152Z,24.97
2019-01-11T07:55:09.569Z,24.63
2019-01-11T07:57:38.394Z,25.17
2019-01-11T08:00:08.655Z,25.10
2019-01-11T08:02:37.550Z,26.23
2019-01-11T08:05:06.670Z,24.30
2019-01-11T08:07:35.561Z,25.23
2019-01-11T08:10:05.574Z,27.00
2019-01-11T08:12:34.380Z,26.93
2019-01-11T08:15:03.354Z,25.63
2019-01-11T08:17:32.347Z,27.23
2019-01-11T08:20:01.165Z,27.77
2019-01-11T08:22:40.936Z,28.53
2019-01-11T08:25:10.879Z,29.33
2019-01-11T08:27:39.678Z,28.03
2019-01-11T08:30:11.653Z,28.57
2019-01-11T08:32:40.466Z,28.53
2019-01-11T08:35:10.199Z,27.03
2019-01-11T08:37:39.138Z,28.33
2019-01-11T08:40:08.938Z,28.20
2019-01-11T08:42:37.814Z,29.07
2019-01-11T08:45:08.175Z,27.70
2019-01-11T08:47:37.103Z,28.87
2019-01-11T08:50:10.451Z,29.03
2019-01-11T08:52:39.267Z,29.37
2019-01-11T08:55:10.587Z,29.37
2019-01-11T08:57:39.538Z,30.13
2019-01-11T09:00:10.183Z,30.80
2019-01-11T09:02:38.995Z,31.63
2019-01-11T09:05:08.357Z,30.30
2019-01-11T09:07:37.162Z,31.60
2019-01-11T09:10:08.729Z,29.73
2019-01-11T09:12:37.551Z,30.43
2019-01-11T09:15:07.091Z,29.33
2019-01-11T09:17:41.900Z,29.50
2019-01-11T09:20:10.842Z,28.40
2019-01-11T09:22:39.665Z,28.30
2019-01-11T09:25:08.608Z,27.40
2019-01-11T09:27:37.415Z,28.40
2019-01-11T09:30:06.910Z,27.20
2019-01-11T09:32:35.742Z,26.53
2019-01-11T09:35:05.496Z,24.63
2019-01-11T09:37:34.447Z,23.27
2019-01-11T09:40:03.550Z,23.10
2019-01-11T09:42:32.339Z,23.00
2019-01-11T09:45:01.145Z,22.00
2019-01-11T09:47:29.939Z,23.67
2019-01-11T09:49:59.126Z,23.07
2019-01-11T09:52:27.924Z,23.60
2019-01-11T09:54:56.732Z,24.57
2019-01-11T09:57:25.582Z,25.03
2019-01-11T09:59:54.563Z,24.50
2019-01-11T10:02:51.800Z,25.73
2019-01-11T10:05:20.699Z,23.87
2019-01-11T10:07:49.568Z,24.70
2019-01-11T10:10:18.736Z,25.07
2019-01-11T10:12:48.512Z,24.93
2019-01-11T10:15:17.591Z,27.10
2019-01-11T10:17:47.331Z,25.40
2019-01-11T10:20:16.214Z,26.37
2019-01-11T10:22:45.071Z,25.77
2019-01-11T10:25:14.037Z,27.53
2019-01-11T10:27:42.831Z,27.63
2019-01-11T10:30:14.422Z,28.33
2019-01-11T10:32:43.316Z,27.77
2019-01-11T10:35:12.294Z,27.63
2019-01-11T10:37:41.234Z,28.30
2019-01-11T10:40:11.713Z,26.77
2019-01-11T10:42:40.768Z,27.20
2019-01-11T10:45:13.474Z,26.23
2019-01-11T10:47:42.318Z,27.67
2019-01-11T10:50:12.735Z,26.00
2019-01-11T10:52:41.709Z,28.20
2019-01-11T10:55:11.672Z,28.33
2019-01-11T10:57:40.650Z,27.30
2019-01-11T11:00:13.592Z,27.13
2019-01-11T11:02:42.644Z,28.13
2019-01-11T11:05:11.678Z,27.23
2019-01-11T11:07:40.498Z,26.73
2019-01-11T11:10:10.869Z,27.70
2019-01-11T11:12:39.753Z,27.40
2019-01-11T11:15:11.149Z,28.67
2019-01-11T11:17:40.114Z,27.63
2019-01-11T11:20:10.532Z,26.97
2019-01-11T11:22:39.412Z,26.63
2019-01-11T11:25:10.349Z,24.93
2019-01-11T11:27:39.228Z,23.80
2019-01-11T11:30:10.049Z,24.07
2019-01-11T11:32:55.626Z,22.23
2019-01-11T11:35:25.365Z,22.10
2019-01-11T11:37:54.723Z,20.53
2019-01-11T11:40:23.963Z,20.47
2019-01-11T11:42:52.761Z,19.13
2019-01-11T11:45:21.695Z,18.33
2019-01-11T11:47:50.582Z,19.73
2019-01-11T11:50:19.619Z,19.60
2019-01-11T11:52:48.577Z,19.53
2019-01-11T11:55:17.520Z,19.43
2019-01-11T11:57:46.403Z,18.37
2019-01-11T12:00:19.146Z,17.20
2019-01-11T12:02:48.225Z,18.90
2019-01-11T12:05:17.226Z,16.40
2019-01-11T12:07:46.199Z,17.10
2019-01-11T12:10:17.231Z,17.47
2019-01-11T12:12:46.034Z,16.07
2019-01-11T12:15:15.574Z,15.77
2019-01-11T12:17:44.463Z,16.93
2019-01-11T12:20:41.678Z,15.83
2019-01-11T12:23:10.645Z,14.93
2019-01-11T12:25:39.434Z,14.97
2019-01-11T12:28:08.265Z,14.97
2019-01-11T12:30:37.165Z,12.90
2019-01-11T12:33:06.075Z,13.07
2019-01-11T12:35:34.959Z,13.13
2019-01-11T12:38:03.780Z,12.37
2019-01-11T12:40:32.578Z,12.60
2019-01-11T12:43:01.408Z,12.93
2019-01-11T12:45:30.214Z,12.23
2019-01-11T12:47:59.040Z,10.90
2019-01-11T12:50:28.355Z,11.03
2019-01-11T12:52:57.197Z,10.70
2019-01-11T12:55:26.125Z,11.37
2019-01-11T12:57:54.935Z,10.67
2019-01-11T13:00:23.988Z,10.50
2019-01-11T13:02:53.074Z,10.80
2019-01-11T13:05:22.296Z,10.37
2019-01-11T13:07:51.165Z,9.57
2019-01-11T13:10:21.049Z,9.63
2019-01-11T13:12:49.906Z,9.60
2019-01-11T13:15:23.442Z,10.10
2019-01-11T13:17:52.464Z,10.33
2019-01-11T13:20:22.538Z,10.33
2019-01-11T13:22:51.707Z,9.87
2019-01-11T13:25:20.687Z,9.83
2019-01-11T13:27:49.597Z,8.87
2019-01-11T13:30:18.866Z,10.40
2019-01-11T13:32:47.834Z,9.00
2019-01-11T13:35:16.997Z,9.43
2019-01-11T13:37:45.967Z,8.90
2019-01-11T13:40:17.688Z,8.00
2019-01-11T13:42:46.542Z,6.77
2019-01-11T13:45:15.982Z,6.70
2019-01-11T13:47:44.838Z,6.23
2019-01-11T13:50:29.365Z,6.30
2019-01-11T13:52:58.163Z,5.87
2019-01-11T13:55:26.981Z,6.03
2019-01-11T13:57:55.779Z,5.40
2019-01-11T14:00:24.652Z,5.17
2019-01-11T14:02:53.582Z,5.07
2019-01-11T14:05:22.398Z,4.87
2019-01-11T14:07:51.191Z,4.87
2019-01-11T14:10:20.141Z,4.50
2019-01-11T14:12:49.007Z,4.33
2019-01-11T14:15:18.587Z,6.47
2019-01-11T14:17:47.389Z,4.07
2019-01-11T14:20:16.305Z,3.90
2019-01-11T14:22:45.171Z,4.47
2019-01-11T14:25:14.122Z,4.00
2019-01-11T14:27:42.994Z,4.20
2019-01-11T14:30:12.452Z,4.57
2019-01-11T14:32:41.398Z,4.00
2019-01-11T14:35:10.343Z,4.47
2019-01-11T14:37:39.173Z,3.70
2019-01-11T14:40:10.302Z,4.20
2019-01-11T14:42:39.114Z,4.30
2019-01-11T14:45:10.154Z,4.30
2019-01-11T14:47:39.114Z,4.30
2019-01-11T14:50:11.198Z,4.50
2019-01-11T14:52:40.088Z,4.70
2019-01-11T14:55:09.022Z,4.67
2019-01-11T14:57:37.922Z,4.47
2019-01-11T15:00:09.991Z,4.87
2019-01-11T15:02:38.826Z,4.60
2019-01-11T15:05:09.472Z,5.00
2019-01-11T15:07:38.399Z,4.50
2019-01-11T15:10:09.365Z,4.57
2019-01-11T15:12:38.247Z,5.23
2019-01-11T15:15:07.637Z,4.83
2019-01-11T15:17:36.434Z,4.80
2019-01-11T15:20:07.483Z,4.30
2019-01-11T15:22:36.353Z,4.47
2019-01-11T15:25:06.503Z,4.60
2019-01-11T15:27:35.290Z,3.93
2019-01-11T15:30:05.314Z,3.93
2019-01-11T15:32:34.188Z,4.00
2019-01-11T15:35:03.079Z,3.77
2019-01-11T15:37:31.962Z,3.73
2019-01-11T15:40:00.763Z,3.53
2019-01-11T15:42:29.620Z,3.53
2019-01-11T15:44:58.482Z,3.40
2019-01-11T15:47:27.315Z,3.77
2019-01-11T15:49:56.194Z,3.70
2019-01-11T15:52:25.055Z,4.07
2019-01-11T15:54:53.858Z,4.60
2019-01-11T15:57:41.654Z,4.80
2019-01-11T16:00:20.963Z,4.70
2019-01-11T16:02:50.122Z,5.23
2019-01-11T16:05:18.934Z,5.47
2019-01-11T16:07:50.753Z,4.93
2019-01-11T16:10:22.186Z,5.37
2019-01-11T16:13:21.131Z,6.50
2019-01-11T16:16:16.655Z,7.50
2019-01-11T16:18:47.652Z,9.40
2019-01-11T16:21:16.503Z,11.40
2019-01-11T16:23:45.398Z,11.37
2019-01-11T16:26:14.283Z,13.83
2019-01-11T16:28:43.145Z,13.17
2019-01-11T16:31:12.094Z,8.33
2019-01-11T16:33:41.088Z,6.53
2019-01-11T16:36:09.987Z,9.03
2019-01-11T16:38:38.909Z,10.37
2019-01-11T16:41:07.861Z,9.97
2019-01-11T16:43:36.840Z,8.97
2019-01-11T16:46:06.819Z,6.60
2019-01-11T16:48:35.715Z,6.00
2019-01-11T16:51:05.752Z,6.00
2019-01-11T16:53:34.698Z,5.10
2019-01-11T16:56:03.977Z,4.93
2019-01-11T16:58:32.908Z,5.03
2019-01-11T17:01:01.878Z,4.70
2019-01-11T17:03:30.781Z,4.90
2019-01-11T17:05:59.662Z,4.73
2019-01-11T17:08:28.588Z,4.73
2019-01-11T17:10:57.450Z,4.30
2019-01-11T17:13:26.326Z,4.37
2019-01-11T17:15:55.226Z,5.20
2019-01-11T17:18:24.110Z,4.47
2019-01-11T17:20:52.987Z,4.50
2019-01-11T17:23:21.898Z,4.20
2019-01-11T17:25:50.842Z,5.20
2019-01-11T17:28:19.651Z,4.00
2019-01-11T17:30:48.615Z,3.70
2019-01-11T17:33:17.481Z,4.20
2019-01-11T17:35:46.339Z,3.90
2019-01-11T17:38:15.268Z,3.80
2019-01-11T17:40:44.949Z,4.27
2019-01-11T17:43:13.821Z,3.93
2019-01-11T17:45:42.706Z,3.93
2019-01-11T17:48:11.803Z,3.77
2019-01-11T17:50:40.767Z,3.97
2019-01-11T17:53:09.660Z,3.90
2019-01-11T17:55:38.711Z,4.17
2019-01-11T17:58:07.547Z,4.30
2019-01-11T18:00:36.536Z,3.30
2019-01-11T18:03:07.287Z,4.13
2019-01-11T18:05:36.660Z,3.77
2019-01-11T18:08:06.463Z,4.00
2019-01-11T18:10:35.388Z,4.03
2019-01-11T18:13:04.772Z,3.57
2019-01-11T18:15:33.678Z,4.03
2019-01-11T18:18:02.574Z,3.63
2019-01-11T18:20:31.482Z,3.53
2019-01-11T18:23:06.551Z,3.10
2019-01-11T18:25:31.166Z,3.57
2019-01-11T18:28:00.331Z,3.87
2019-01-11T18:30:29.387Z,3.70
2019-01-11T18:32:58.470Z,3.70
2019-01-11T18:35:27.379Z,4.20
2019-01-11T18:37:56.288Z,3.73
2019-01-11T18:40:26.310Z,3.63
2019-01-11T18:42:55.507Z,3.20
2019-01-11T18:45:28.625Z,4.27
2019-01-11T18:47:55.481Z,3.73
2019-01-11T18:50:24.706Z,4.03
2019-01-11T18:52:53.621Z,3.33
2019-01-11T18:55:22.612Z,4.80
2019-01-11T18:57:51.706Z,3.47
2019-01-11T19:00:22.463Z,3.90
2019-01-11T19:02:51.458Z,3.33
2019-01-11T19:05:20.571Z,4.23
2019-01-11T19:07:49.866Z,3.63
2019-01-11T19:10:19.676Z,3.60
2019-01-11T19:12:48.727Z,3.73
2019-01-11T19:15:23.007Z,3.87
2019-01-11T19:17:52.114Z,2.90
2019-01-11T19:20:23.557Z,4.00
2019-01-11T19:22:52.898Z,3.40
2019-01-11T19:25:21.982Z,3.43
2019-01-11T19:27:51.359Z,3.97
2019-01-11T19:30:25.846Z,3.60
2019-01-11T19:32:54.907Z,3.80
2019-01-11T19:35:23.923Z,3.00
2019-01-11T19:37:53.124Z,3.23
2019-01-11T19:40:22.388Z,3.60
2019-01-11T19:42:51.357Z,3.57
2019-01-11T19:45:20.465Z,3.50
2019-01-11T19:47:49.547Z,3.77
2019-01-11T19:50:21.296Z,3.40
2019-01-11T19:52:50.453Z,3.63
2019-01-11T19:55:19.786Z,4.13
2019-01-11T19:57:48.937Z,3.90
2019-01-11T20:00:20.537Z,3.43
2019-01-11T20:02:50.851Z,3.60
2019-01-11T20:05:20.286Z,3.77
2019-01-11T20:07:49.476Z,3.57
2019-01-11T20:10:21.111Z,3.90
2019-01-11T20:12:50.090Z,3.80
2019-01-11T20:15:19.079Z,3.73
2019-01-11T20:17:48.251Z,3.73
2019-01-11T20:20:17.139Z,3.43
2019-01-11T20:22:46.309Z,3.57
2019-01-11T20:25:17.940Z,4.37
2019-01-11T20:27:47.220Z,3.70
2019-01-11T20:30:18.873Z,3.97
2019-01-11T20:32:48.279Z,3.87
2019-01-11T20:35:17.220Z,4.17
2019-01-11T20:37:47.535Z,4.33
2019-01-11T20:40:17.481Z,4.17
2019-01-11T20:42:46.517Z,3.80
2019-01-11T20:45:17.824Z,3.60
2019-01-11T20:47:47.203Z,4.40
2019-01-11T20:50:18.429Z,3.73
2019-01-11T20:52:47.442Z,4.07
2019-01-11T20:55:16.327Z,4.83
2019-01-11T20:57:45.563Z,4.57
2019-01-11T21:00:21.223Z,4.20
2019-01-11T21:02:50.344Z,4.70
2019-01-11T21:05:19.749Z,4.50
2019-01-11T21:07:48.620Z,4.53
2019-01-11T21:10:17.638Z,4.20
2019-01-11T21:12:46.614Z,3.93
2019-01-11T21:15:15.925Z,4.10
2019-01-11T21:17:44.913Z,4.60
2019-01-11T21:20:15.346Z,4.50
2019-01-11T21:22:44.868Z,3.70
2019-01-11T21:25:14.724Z,4.73
2019-01-11T21:27:43.840Z,5.43
2019-01-11T21:30:18.410Z,4.60
2019-01-11T21:32:47.767Z,5.13
2019-01-11T21:35:16.680Z,3.80
2019-01-11T21:37:55.531Z,3.97
2019-01-11T21:40:24.418Z,4.80
2019-01-11T21:42:53.391Z,4.50
2019-01-11T21:45:22.372Z,3.73
2019-01-11T21:47:51.251Z,4.67
2019-01-11T21:50:24.827Z,4.43
2019-01-11T21:52:53.706Z,5.17
2019-01-11T21:55:22.715Z,4.93
2019-01-11T21:57:51.807Z,5.00
2019-01-11T22:00:29.515Z,4.33
2019-01-11T22:02:58.597Z,5.30
2019-01-11T22:05:27.611Z,4.67
2019-01-11T22:07:56.546Z,5.23
2019-01-11T22:10:25.578Z,4.67
2019-01-11T22:12:54.469Z,5.60
2019-01-11T22:15:23.336Z,5.97
2019-01-11T22:17:52.299Z,4.93
2019-01-11T22:20:21.194Z,5.30
2019-01-11T22:22:50.108Z,5.80
2019-01-11T22:25:19.098Z,4.70
2019-01-11T22:27:48.098Z,4.70
2019-01-11T22:30:19.140Z,4.70
2019-01-11T22:32:48.012Z,4.83
2019-01-11T22:35:18.443Z,4.33
2019-01-11T22:37:47.693Z,4.90
2019-01-11T22:40:18.411Z,5.30
2019-01-11T22:42:48.717Z,5.60
2019-01-11T22:45:17.583Z,5.47
2019-01-11T22:47:46.515Z,5.00
2019-01-11T22:50:15.537Z,4.20
2019-01-11T22:52:44.675Z,4.73
2019-01-11T22:55:14.600Z,5.10
2019-01-11T22:57:43.479Z,6.20
2019-01-11T23:00:52.911Z,5.50
2019-01-11T23:03:25.662Z,5.00
2019-01-11T23:06:08.902Z,6.13
2019-01-11T23:08:32.820Z,5.90
2019-01-11T23:11:31.902Z,5.47
2019-01-11T23:14:00.802Z,5.40
2019-01-11T23:16:40.619Z,3.83
2019-01-11T23:19:09.495Z,4.63
2019-01-11T23:21:38.367Z,4.97
2019-01-11T23:24:07.290Z,4.50
2019-01-11T23:26:36.167Z,4.33
2019-01-11T23:29:05.190Z,4.63
2019-01-11T23:31:34.005Z,4.53
2019-01-11T23:34:02.878Z,3.70
2019-01-11T23:36:31.685Z,4.77
2019-01-11T23:39:00.478Z,4.50
2019-01-11T23:41:29.310Z,5.20
2019-01-11T23:43:58.083Z,4.60
2019-01-11T23:46:26.881Z,4.37
2019-01-11T23:48:55.694Z,4.27
2019-01-11T23:51:24.510Z,4.27
2019-01-11T23:53:53.368Z,4.30
2019-01-11T23:56:22.542Z,4.63
2019-01-11T23:58:51.339Z,4.43
